sensor_id;sensor_type;location;lat;lon;timestamp;temperature;humidity
913;DHT22;443;51.448;7.028;2023-04-15T00:02:12;13.30;69.60
913;DHT22;443;51.448;7.028;2023-04-15T00:04:39;13.30;68.30
913;DHT22;443;51.448;7.028;2023-04-15T00:07:07;13.30;70.00
913;DHT22;443;51.448;7.028;2023-04-15T00:09:34;13.30;69.80
913;DHT22;443;51.448;7.028;2023-04-15T00:12:01;13.30;70.40
913;DHT22;443;51.448;7.028;2023-04-15T00:14:28;13.20;70.50
913;DHT22;443;51.448;7.028;2023-04-15T00:16:55;13.20;69.40
913;DHT22;443;51.448;7.028;2023-04-15T00:19:22;13.30;70.40
913;DHT22;443;51.448;7.028;2023-04-15T00:21:49;13.20;69.00
913;DHT22;443;51.448;7.028;2023-04-15T00:24:17;13.10;69.60
913;DHT22;443;51.448;7.028;2023-04-15T00:26:44;13.20;70.60
913;DHT22;443;51.448;7.028;2023-04-15T00:29:11;13.30;70.40
913;DHT22;443;51.448;7.028;2023-04-15T00:31:38;13.30;70.00
913;DHT22;443;51.448;7.028;2023-04-15T00:34:05;13.20;70.00
913;DHT22;443;51.448;7.028;2023-04-15T00:36:32;13.10;70.00
913;DHT22;443;51.448;7.028;2023-04-15T00:39:00;13.10;71.10
913;DHT22;443;51.448;7.028;2023-04-15T00:41:29;13.10;69.70
913;DHT22;443;51.448;7.028;2023-04-15T00:43:56;13.10;70.70
913;DHT22;443;51.448;7.028;2023-04-15T00:46:24;13.10;70.80
913;DHT22;443;51.448;7.028;2023-04-15T00:48:53;13.10;70.90
913;DHT22;443;51.448;7.028;2023-04-15T00:51:20;13.10;70.70
913;DHT22;443;51.448;7.028;2023-04-15T00:53:48;13.00;71.00
913;DHT22;443;51.448;7.028;2023-04-15T00:56:16;12.80;67.50
913;DHT22;443;51.448;7.028;2023-04-15T00:58:44;12.90;70.90
913;DHT22;443;51.448;7.028;2023-04-15T01:01:11;13.10;71.30
913;DHT22;443;51.448;7.028;2023-04-15T01:03:37;12.90;68.10
913;DHT22;443;51.448;7.028;2023-04-15T01:06:05;12.90;70.70
913;DHT22;443;51.448;7.028;2023-04-15T01:08:32;13.00;70.80
913;DHT22;443;51.448;7.028;2023-04-15T01:11:00;12.90;69.60
913;DHT22;443;51.448;7.028;2023-04-15T01:13:28;13.00;71.30
913;DHT22;443;51.448;7.028;2023-04-15T01:15:57;13.00;70.80
913;DHT22;443;51.448;7.028;2023-04-15T01:18:23;12.80;70.60
913;DHT22;443;51.448;7.028;2023-04-15T01:20:50;12.90;71.00
913;DHT22;443;51.448;7.028;2023-04-15T01:23:17;13.00;71.40
913;DHT22;443;51.448;7.028;2023-04-15T01:25:45;13.00;71.20
913;DHT22;443;51.448;7.028;2023-04-15T01:28:13;12.90;71.40
913;DHT22;443;51.448;7.028;2023-04-15T01:30:40;12.80;70.70
913;DHT22;443;51.448;7.028;2023-04-15T01:33:07;12.80;71.20
913;DHT22;443;51.448;7.028;2023-04-15T01:35:34;12.80;71.60
913;DHT22;443;51.448;7.028;2023-04-15T01:38:04;12.80;70.90
913;DHT22;443;51.448;7.028;2023-04-15T01:40:32;12.70;71.00
913;DHT22;443;51.448;7.028;2023-04-15T01:43:00;12.70;71.00
913;DHT22;443;51.448;7.028;2023-04-15T01:45:27;12.70;71.20
913;DHT22;443;51.448;7.028;2023-04-15T01:47:53;12.60;71.40
913;DHT22;443;51.448;7.028;2023-04-15T01:50:20;12.70;71.80
913;DHT22;443;51.448;7.028;2023-04-15T01:52:47;12.70;71.40
913;DHT22;443;51.448;7.028;2023-04-15T01:55:14;12.60;70.50
913;DHT22;443;51.448;7.028;2023-04-15T01:57:41;12.60;70.80
913;DHT22;443;51.448;7.028;2023-04-15T02:00:10;12.70;71.80
913;DHT22;443;51.448;7.028;2023-04-15T02:02:37;12.70;71.80
913;DHT22;443;51.448;7.028;2023-04-15T02:05:04;12.50;69.20
913;DHT22;443;51.448;7.028;2023-04-15T02:07:31;12.50;70.30
913;DHT22;443;51.448;7.028;2023-04-15T02:09:58;12.50;71.00
913;DHT22;443;51.448;7.028;2023-04-15T02:12:24;12.50;70.60
913;DHT22;443;51.448;7.028;2023-04-15T02:14:51;12.60;72.30
913;DHT22;443;51.448;7.028;2023-04-15T02:17:20;12.60;71.10
913;DHT22;443;51.448;7.028;2023-04-15T02:19:46;12.70;71.50
913;DHT22;443;51.448;7.028;2023-04-15T02:22:14;12.70;72.10
913;DHT22;443;51.448;7.028;2023-04-15T02:24:43;12.50;70.70
913;DHT22;443;51.448;7.028;2023-04-15T02:27:14;12.60;72.20
913;DHT22;443;51.448;7.028;2023-04-15T02:29:42;12.60;70.90
913;DHT22;443;51.448;7.028;2023-04-15T02:32:09;12.70;72.90
913;DHT22;443;51.448;7.028;2023-04-15T02:34:38;12.70;72.50
913;DHT22;443;51.448;7.028;2023-04-15T02:37:07;12.60;71.80
913;DHT22;443;51.448;7.028;2023-04-15T02:39:34;12.70;72.10
913;DHT22;443;51.448;7.028;2023-04-15T02:42:01;12.50;70.10
913;DHT22;443;51.448;7.028;2023-04-15T02:44:28;12.40;70.40
913;DHT22;443;51.448;7.028;2023-04-15T02:46:55;12.40;71.40
913;DHT22;443;51.448;7.028;2023-04-15T02:49:22;12.60;72.50
913;DHT22;443;51.448;7.028;2023-04-15T02:51:51;12.60;72.00
913;DHT22;443;51.448;7.028;2023-04-15T02:54:19;12.40;71.30
913;DHT22;443;51.448;7.028;2023-04-15T02:56:47;12.60;72.70
913;DHT22;443;51.448;7.028;2023-04-15T02:59:14;12.70;72.80
913;DHT22;443;51.448;7.028;2023-04-15T03:01:41;12.70;72.50
913;DHT22;443;51.448;7.028;2023-04-15T03:04:08;12.60;70.60
913;DHT22;443;51.448;7.028;2023-04-15T03:06:34;12.40;70.50
913;DHT22;443;51.448;7.028;2023-04-15T03:09:02;12.60;72.90
913;DHT22;443;51.448;7.028;2023-04-15T03:11:30;12.40;71.40
913;DHT22;443;51.448;7.028;2023-04-15T03:13:57;12.50;71.50
913;DHT22;443;51.448;7.028;2023-04-15T03:16:24;12.30;70.20
913;DHT22;443;51.448;7.028;2023-04-15T03:18:51;12.50;72.80
913;DHT22;443;51.448;7.028;2023-04-15T03:21:17;12.60;72.30
913;DHT22;443;51.448;7.028;2023-04-15T03:23:44;12.60;72.30
913;DHT22;443;51.448;7.028;2023-04-15T03:26:26;12.50;72.20
913;DHT22;443;51.448;7.028;2023-04-15T03:28:53;12.30;69.90
913;DHT22;443;51.448;7.028;2023-04-15T03:31:20;12.50;73.00
913;DHT22;443;51.448;7.028;2023-04-15T03:33:47;12.50;72.70
913;DHT22;443;51.448;7.028;2023-04-15T03:36:14;12.50;71.60
913;DHT22;443;51.448;7.028;2023-04-15T03:38:41;12.50;72.20
913;DHT22;443;51.448;7.028;2023-04-15T03:41:08;12.50;72.50
913;DHT22;443;51.448;7.028;2023-04-15T03:43:36;12.30;70.50
913;DHT22;443;51.448;7.028;2023-04-15T03:46:03;12.30;72.60
913;DHT22;443;51.448;7.028;2023-04-15T03:48:30;12.30;71.20
913;DHT22;443;51.448;7.028;2023-04-15T03:50:57;12.30;70.60
913;DHT22;443;51.448;7.028;2023-04-15T03:53:24;12.30;71.90
913;DHT22;443;51.448;7.028;2023-04-15T03:55:51;12.30;72.20
913;DHT22;443;51.448;7.028;2023-04-15T03:58:17;12.30;72.00
913;DHT22;443;51.448;7.028;2023-04-15T04:00:46;12.30;72.60
913;DHT22;443;51.448;7.028;2023-04-15T04:03:13;12.30;71.10
913;DHT22;443;51.448;7.028;2023-04-15T04:05:39;12.30;73.00
913;DHT22;443;51.448;7.028;2023-04-15T04:08:07;12.30;72.00
913;DHT22;443;51.448;7.028;2023-04-15T04:10:33;12.20;71.90
913;DHT22;443;51.448;7.028;2023-04-15T04:13:00;12.20;71.10
913;DHT22;443;51.448;7.028;2023-04-15T04:15:27;12.10;71.00
913;DHT22;443;51.448;7.028;2023-04-15T04:17:55;12.20;71.60
913;DHT22;443;51.448;7.028;2023-04-15T04:20:22;12.10;71.60
913;DHT22;443;51.448;7.028;2023-04-15T04:22:49;12.20;71.60
913;DHT22;443;51.448;7.028;2023-04-15T04:25:16;12.20;71.80
913;DHT22;443;51.448;7.028;2023-04-15T04:27:43;12.20;71.90
913;DHT22;443;51.448;7.028;2023-04-15T04:30:11;12.20;71.60
913;DHT22;443;51.448;7.028;2023-04-15T04:32:38;12.10;70.80
913;DHT22;443;51.448;7.028;2023-04-15T04:35:07;12.20;71.40
913;DHT22;443;51.448;7.028;2023-04-15T04:37:34;12.20;72.30
913;DHT22;443;51.448;7.028;2023-04-15T04:40:01;12.20;71.60
913;DHT22;443;51.448;7.028;2023-04-15T04:42:28;12.20;71.40
913;DHT22;443;51.448;7.028;2023-04-15T04:44:55;12.20;71.90
913;DHT22;443;51.448;7.028;2023-04-15T04:47:22;12.20;71.70
913;DHT22;443;51.448;7.028;2023-04-15T04:49:49;12.10;71.00
913;DHT22;443;51.448;7.028;2023-04-15T04:52:17;12.10;71.50
913;DHT22;443;51.448;7.028;2023-04-15T04:54:44;12.20;71.50
913;DHT22;443;51.448;7.028;2023-04-15T04:57:11;12.10;71.50
913;DHT22;443;51.448;7.028;2023-04-15T04:59:39;12.20;71.70
913;DHT22;443;51.448;7.028;2023-04-15T05:02:06;12.20;71.80
913;DHT22;443;51.448;7.028;2023-04-15T05:04:33;12.30;72.00
913;DHT22;443;51.448;7.028;2023-04-15T05:07:00;12.30;72.40
913;DHT22;443;51.448;7.028;2023-04-15T05:09:28;12.30;72.30
913;DHT22;443;51.448;7.028;2023-04-15T05:11:56;12.30;71.70
913;DHT22;443;51.448;7.028;2023-04-15T05:14:23;12.30;72.10
913;DHT22;443;51.448;7.028;2023-04-15T05:16:50;12.40;72.30
913;DHT22;443;51.448;7.028;2023-04-15T05:19:17;12.30;71.80
913;DHT22;443;51.448;7.028;2023-04-15T05:21:43;12.40;72.50
913;DHT22;443;51.448;7.028;2023-04-15T05:24:10;12.40;72.50
913;DHT22;443;51.448;7.028;2023-04-15T05:26:38;12.40;72.50
913;DHT22;443;51.448;7.028;2023-04-15T05:29:05;12.40;72.50
913;DHT22;443;51.448;7.028;2023-04-15T05:31:32;12.40;72.50
913;DHT22;443;51.448;7.028;2023-04-15T05:33:59;12.50;72.80
913;DHT22;443;51.448;7.028;2023-04-15T05:36:26;12.50;72.30
913;DHT22;443;51.448;7.028;2023-04-15T05:38:53;12.50;72.70
913;DHT22;443;51.448;7.028;2023-04-15T05:41:20;12.50;72.10
913;DHT22;443;51.448;7.028;2023-04-15T05:43:48;12.50;72.70
913;DHT22;443;51.448;7.028;2023-04-15T05:46:15;12.60;73.00
913;DHT22;443;51.448;7.028;2023-04-15T05:48:41;12.50;72.60
913;DHT22;443;51.448;7.028;2023-04-15T05:51:08;12.50;72.50
913;DHT22;443;51.448;7.028;2023-04-15T05:53:35;12.60;73.00
913;DHT22;443;51.448;7.028;2023-04-15T05:56:02;12.60;72.80
913;DHT22;443;51.448;7.028;2023-04-15T05:58:29;12.60;72.30
913;DHT22;443;51.448;7.028;2023-04-15T06:00:57;12.60;72.60
913;DHT22;443;51.448;7.028;2023-04-15T06:03:25;12.70;72.90
913;DHT22;443;51.448;7.028;2023-04-15T06:05:51;12.80;73.10
913;DHT22;443;51.448;7.028;2023-04-15T06:08:18;12.80;73.20
913;DHT22;443;51.448;7.028;2023-04-15T06:10:46;12.90;73.20
913;DHT22;443;51.448;7.028;2023-04-15T06:13:12;12.80;72.70
913;DHT22;443;51.448;7.028;2023-04-15T06:15:39;12.90;72.70
913;DHT22;443;51.448;7.028;2023-04-15T06:18:08;12.90;72.70
913;DHT22;443;51.448;7.028;2023-04-15T06:20:36;12.80;72.60
913;DHT22;443;51.448;7.028;2023-04-15T06:23:02;12.90;72.40
913;DHT22;443;51.448;7.028;2023-04-15T06:25:29;12.90;72.20
913;DHT22;443;51.448;7.028;2023-04-15T06:27:56;12.90;72.40
913;DHT22;443;51.448;7.028;2023-04-15T06:30:23;12.90;72.40
913;DHT22;443;51.448;7.028;2023-04-15T06:32:50;12.90;72.40
913;DHT22;443;51.448;7.028;2023-04-15T06:35:18;13.00;72.70
913;DHT22;443;51.448;7.028;2023-04-15T06:37:45;12.90;72.30
913;DHT22;443;51.448;7.028;2023-04-15T06:40:13;13.00;72.50
913;DHT22;443;51.448;7.028;2023-04-15T06:42:39;12.90;72.00
913;DHT22;443;51.448;7.028;2023-04-15T06:45:07;13.00;73.00
913;DHT22;443;51.448;7.028;2023-04-15T06:47:34;13.10;72.30
913;DHT22;443;51.448;7.028;2023-04-15T06:50:01;13.20;72.80
913;DHT22;443;51.448;7.028;2023-04-15T06:52:29;13.10;72.20
913;DHT22;443;51.448;7.028;2023-04-15T06:54:56;13.10;71.70
913;DHT22;443;51.448;7.028;2023-04-15T06:57:23;13.10;71.60
913;DHT22;443;51.448;7.028;2023-04-15T06:59:50;13.20;72.00
913;DHT22;443;51.448;7.028;2023-04-15T07:02:19;13.40;74.50
913;DHT22;443;51.448;7.028;2023-04-15T07:04:46;13.30;71.50
913;DHT22;443;51.448;7.028;2023-04-15T07:07:13;13.30;71.30
913;DHT22;443;51.448;7.028;2023-04-15T07:09:42;13.40;72.40
913;DHT22;443;51.448;7.028;2023-04-15T07:12:09;13.40;71.60
913;DHT22;443;51.448;7.028;2023-04-15T07:14:36;13.30;70.90
913;DHT22;443;51.448;7.028;2023-04-15T07:17:02;13.40;71.40
913;DHT22;443;51.448;7.028;2023-04-15T07:19:29;13.40;71.50
913;DHT22;443;51.448;7.028;2023-04-15T07:21:56;13.30;70.70
913;DHT22;443;51.448;7.028;2023-04-15T07:24:23;13.30;71.30
913;DHT22;443;51.448;7.028;2023-04-15T07:26:52;13.40;71.00
913;DHT22;443;51.448;7.028;2023-04-15T07:29:19;13.40;72.00
913;DHT22;443;51.448;7.028;2023-04-15T07:31:46;13.50;70.60
913;DHT22;443;51.448;7.028;2023-04-15T07:34:13;13.30;70.80
913;DHT22;443;51.448;7.028;2023-04-15T07:36:40;13.40;71.20
913;DHT22;443;51.448;7.028;2023-04-15T07:39:07;13.40;71.30
913;DHT22;443;51.448;7.028;2023-04-15T07:41:34;13.40;70.70
913;DHT22;443;51.448;7.028;2023-04-15T07:44:03;13.40;71.00
913;DHT22;443;51.448;7.028;2023-04-15T07:46:29;13.50;71.30
913;DHT22;443;51.448;7.028;2023-04-15T07:48:56;13.50;71.00
913;DHT22;443;51.448;7.028;2023-04-15T07:51:23;13.50;71.10
913;DHT22;443;51.448;7.028;2023-04-15T07:53:50;13.70;72.20
913;DHT22;443;51.448;7.028;2023-04-15T07:56:17;13.60;70.10
913;DHT22;443;51.448;7.028;2023-04-15T07:58:44;13.60;70.70
913;DHT22;443;51.448;7.028;2023-04-15T08:01:12;13.70;71.80
913;DHT22;443;51.448;7.028;2023-04-15T08:03:39;13.80;70.30
913;DHT22;443;51.448;7.028;2023-04-15T08:06:06;13.80;69.60
913;DHT22;443;51.448;7.028;2023-04-15T08:08:33;13.80;69.50
913;DHT22;443;51.448;7.028;2023-04-15T08:11:00;13.80;69.20
913;DHT22;443;51.448;7.028;2023-04-15T08:13:27;13.80;69.40
913;DHT22;443;51.448;7.028;2023-04-15T08:16:19;13.70;69.80
913;DHT22;443;51.448;7.028;2023-04-15T08:18:47;13.90;69.00
913;DHT22;443;51.448;7.028;2023-04-15T08:21:14;14.00;70.50
913;DHT22;443;51.448;7.028;2023-04-15T08:23:42;13.90;68.40
913;DHT22;443;51.448;7.028;2023-04-15T08:26:09;13.80;69.10
913;DHT22;443;51.448;7.028;2023-04-15T08:28:37;13.90;70.00
913;DHT22;443;51.448;7.028;2023-04-15T08:31:04;13.90;68.80
913;DHT22;443;51.448;7.028;2023-04-15T08:33:32;14.00;69.80
913;DHT22;443;51.448;7.028;2023-04-15T08:35:59;14.10;69.80
913;DHT22;443;51.448;7.028;2023-04-15T08:38:26;14.20;70.00
913;DHT22;443;51.448;7.028;2023-04-15T08:40:53;14.10;68.50
913;DHT22;443;51.448;7.028;2023-04-15T08:43:22;14.10;67.00
913;DHT22;443;51.448;7.028;2023-04-15T08:45:51;14.20;66.90
913;DHT22;443;51.448;7.028;2023-04-15T08:48:19;14.20;68.60
913;DHT22;443;51.448;7.028;2023-04-15T08:50:47;14.20;66.90
913;DHT22;443;51.448;7.028;2023-04-15T08:53:14;14.30;67.50
913;DHT22;443;51.448;7.028;2023-04-15T08:55:42;14.30;70.30
913;DHT22;443;51.448;7.028;2023-04-15T08:58:10;14.40;68.80
913;DHT22;443;51.448;7.028;2023-04-15T09:00:38;14.50;69.80
913;DHT22;443;51.448;7.028;2023-04-15T09:03:05;14.50;68.70
913;DHT22;443;51.448;7.028;2023-04-15T09:05:32;14.60;67.40
913;DHT22;443;51.448;7.028;2023-04-15T09:08:02;14.60;68.10
913;DHT22;443;51.448;7.028;2023-04-15T09:10:30;14.70;70.00
913;DHT22;443;51.448;7.028;2023-04-15T09:12:57;14.70;68.70
913;DHT22;443;51.448;7.028;2023-04-15T09:15:25;14.60;64.80
913;DHT22;443;51.448;7.028;2023-04-15T09:17:54;14.60;65.70
913;DHT22;443;51.448;7.028;2023-04-15T09:20:21;14.70;67.50
913;DHT22;443;51.448;7.028;2023-04-15T09:22:49;14.70;67.00
913;DHT22;443;51.448;7.028;2023-04-15T09:25:28;14.70;66.80
913;DHT22;443;51.448;7.028;2023-04-15T09:27:56;14.70;66.30
913;DHT22;443;51.448;7.028;2023-04-15T09:30:23;14.80;69.50
913;DHT22;443;51.448;7.028;2023-04-15T09:32:51;14.80;69.20
913;DHT22;443;51.448;7.028;2023-04-15T09:35:18;14.80;66.50
913;DHT22;443;51.448;7.028;2023-04-15T09:37:45;14.80;66.40
913;DHT22;443;51.448;7.028;2023-04-15T09:40:12;14.70;65.40
913;DHT22;443;51.448;7.028;2023-04-15T09:42:55;14.80;68.30
913;DHT22;443;51.448;7.028;2023-04-15T09:45:23;14.80;67.60
913;DHT22;443;51.448;7.028;2023-04-15T09:47:50;14.80;68.70
913;DHT22;443;51.448;7.028;2023-04-15T09:50:18;14.80;68.90
913;DHT22;443;51.448;7.028;2023-04-15T09:52:46;14.80;68.60
913;DHT22;443;51.448;7.028;2023-04-15T09:55:13;14.80;67.40
913;DHT22;443;51.448;7.028;2023-04-15T09:57:41;14.80;67.50
913;DHT22;443;51.448;7.028;2023-04-15T10:00:10;14.80;67.00
913;DHT22;443;51.448;7.028;2023-04-15T10:02:39;14.80;67.70
913;DHT22;443;51.448;7.028;2023-04-15T10:05:07;14.80;67.70
913;DHT22;443;51.448;7.028;2023-04-15T10:07:36;14.90;67.60
913;DHT22;443;51.448;7.028;2023-04-15T10:10:06;14.90;68.40
913;DHT22;443;51.448;7.028;2023-04-15T10:12:35;14.90;67.70
913;DHT22;443;51.448;7.028;2023-04-15T10:15:04;14.90;67.50
913;DHT22;443;51.448;7.028;2023-04-15T10:17:33;14.80;66.40
913;DHT22;443;51.448;7.028;2023-04-15T10:20:02;14.80;69.10
913;DHT22;443;51.448;7.028;2023-04-15T10:22:30;14.80;67.90
913;DHT22;443;51.448;7.028;2023-04-15T10:24:58;14.90;68.60
913;DHT22;443;51.448;7.028;2023-04-15T10:27:26;14.80;68.10
913;DHT22;443;51.448;7.028;2023-04-15T10:29:53;14.80;67.70
913;DHT22;443;51.448;7.028;2023-04-15T10:32:21;14.80;66.90
913;DHT22;443;51.448;7.028;2023-04-15T10:34:51;14.90;69.30
913;DHT22;443;51.448;7.028;2023-04-15T10:37:21;15.00;69.70
913;DHT22;443;51.448;7.028;2023-04-15T10:39:48;15.00;67.70
913;DHT22;443;51.448;7.028;2023-04-15T10:42:16;15.00;67.80
913;DHT22;443;51.448;7.028;2023-04-15T10:44:48;14.90;67.70
913;DHT22;443;51.448;7.028;2023-04-15T10:47:17;14.90;66.40
913;DHT22;443;51.448;7.028;2023-04-15T10:49:46;14.90;68.20
913;DHT22;443;51.448;7.028;2023-04-15T10:52:15;14.90;67.40
913;DHT22;443;51.448;7.028;2023-04-15T10:54:43;14.90;67.50
913;DHT22;443;51.448;7.028;2023-04-15T10:57:15;14.80;66.50
913;DHT22;443;51.448;7.028;2023-04-15T11:00:09;14.90;68.40
913;DHT22;443;51.448;7.028;2023-04-15T11:02:38;14.90;68.00
913;DHT22;443;51.448;7.028;2023-04-15T11:05:06;14.80;68.50
913;DHT22;443;51.448;7.028;2023-04-15T11:07:35;14.90;68.70
913;DHT22;443;51.448;7.028;2023-04-15T11:10:03;14.90;66.90
913;DHT22;443;51.448;7.028;2023-04-15T11:12:34;14.90;68.50
913;DHT22;443;51.448;7.028;2023-04-15T11:15:26;14.90;67.70
913;DHT22;443;51.448;7.028;2023-04-15T11:17:55;14.90;67.70
913;DHT22;443;51.448;7.028;2023-04-15T11:20:22;15.00;69.50
913;DHT22;443;51.448;7.028;2023-04-15T11:22:52;14.90;68.00
913;DHT22;443;51.448;7.028;2023-04-15T11:25:22;15.00;70.30
913;DHT22;443;51.448;7.028;2023-04-15T11:27:51;14.90;67.20
913;DHT22;443;51.448;7.028;2023-04-15T11:30:20;15.00;68.60
913;DHT22;443;51.448;7.028;2023-04-15T11:32:47;14.90;67.50
913;DHT22;443;51.448;7.028;2023-04-15T11:35:15;14.90;68.30
913;DHT22;443;51.448;7.028;2023-04-15T11:37:42;14.90;68.80
913;DHT22;443;51.448;7.028;2023-04-15T11:40:11;14.90;70.40
913;DHT22;443;51.448;7.028;2023-04-15T11:42:38;14.90;70.20
913;DHT22;443;51.448;7.028;2023-04-15T11:45:08;14.90;70.20
913;DHT22;443;51.448;7.028;2023-04-15T11:47:35;14.90;70.60
913;DHT22;443;51.448;7.028;2023-04-15T11:50:15;14.90;70.40
913;DHT22;443;51.448;7.028;2023-04-15T11:52:52;14.90;70.00
913;DHT22;443;51.448;7.028;2023-04-15T11:55:20;14.90;69.70
913;DHT22;443;51.448;7.028;2023-04-15T11:57:49;14.90;69.80
913;DHT22;443;51.448;7.028;2023-04-15T12:00:16;14.90;69.90
913;DHT22;443;51.448;7.028;2023-04-15T12:02:42;15.00;70.20
913;DHT22;443;51.448;7.028;2023-04-15T12:05:09;14.90;69.60
913;DHT22;443;51.448;7.028;2023-04-15T12:07:57;14.90;69.60
913;DHT22;443;51.448;7.028;2023-04-15T12:10:25;15.00;70.10
913;DHT22;443;51.448;7.028;2023-04-15T12:12:52;14.90;70.10
913;DHT22;443;51.448;7.028;2023-04-15T12:15:21;14.90;69.50
913;DHT22;443;51.448;7.028;2023-04-15T12:17:48;15.00;69.90
913;DHT22;443;51.448;7.028;2023-04-15T12:20:20;15.00;69.70
913;DHT22;443;51.448;7.028;2023-04-15T12:22:47;15.00;69.70
913;DHT22;443;51.448;7.028;2023-04-15T12:25:14;15.00;68.80
913;DHT22;443;51.448;7.028;2023-04-15T12:27:50;15.00;66.50
913;DHT22;443;51.448;7.028;2023-04-15T12:30:17;14.90;67.20
913;DHT22;443;51.448;7.028;2023-04-15T12:32:45;14.90;65.60
913;DHT22;443;51.448;7.028;2023-04-15T12:35:12;15.00;68.00
913;DHT22;443;51.448;7.028;2023-04-15T12:37:39;14.90;68.60
913;DHT22;443;51.448;7.028;2023-04-15T12:40:07;14.90;67.90
913;DHT22;443;51.448;7.028;2023-04-15T12:42:34;14.90;67.90
913;DHT22;443;51.448;7.028;2023-04-15T12:45:03;14.80;68.10
913;DHT22;443;51.448;7.028;2023-04-15T12:47:30;14.90;69.20
913;DHT22;443;51.448;7.028;2023-04-15T12:49:57;14.90;66.30
913;DHT22;443;51.448;7.028;2023-04-15T12:52:24;14.80;67.50
913;DHT22;443;51.448;7.028;2023-04-15T12:54:50;14.80;68.10
913;DHT22;443;51.448;7.028;2023-04-15T12:57:18;14.80;67.70
913;DHT22;443;51.448;7.028;2023-04-15T12:59:45;14.80;67.40
913;DHT22;443;51.448;7.028;2023-04-15T13:02:13;14.80;68.10
913;DHT22;443;51.448;7.028;2023-04-15T13:04:40;14.80;68.40
913;DHT22;443;51.448;7.028;2023-04-15T13:07:06;14.80;68.90
913;DHT22;443;51.448;7.028;2023-04-15T13:09:33;14.70;68.20
913;DHT22;443;51.448;7.028;2023-04-15T13:12:02;14.70;66.90
913;DHT22;443;51.448;7.028;2023-04-15T13:14:29;14.70;67.90
913;DHT22;443;51.448;7.028;2023-04-15T13:16:56;14.70;67.30
913;DHT22;443;51.448;7.028;2023-04-15T13:19:24;14.70;67.80
913;DHT22;443;51.448;7.028;2023-04-15T13:21:51;14.70;68.20
913;DHT22;443;51.448;7.028;2023-04-15T13:24:18;14.70;68.10
913;DHT22;443;51.448;7.028;2023-04-15T13:26:45;14.70;67.90
913;DHT22;443;51.448;7.028;2023-04-15T13:29:12;14.70;69.10
913;DHT22;443;51.448;7.028;2023-04-15T13:31:38;14.70;68.70
913;DHT22;443;51.448;7.028;2023-04-15T13:34:05;14.70;68.20
913;DHT22;443;51.448;7.028;2023-04-15T13:36:33;14.70;69.00
913;DHT22;443;51.448;7.028;2023-04-15T13:39:00;14.70;68.70
913;DHT22;443;51.448;7.028;2023-04-15T13:41:28;14.70;67.90
913;DHT22;443;51.448;7.028;2023-04-15T13:43:55;14.60;69.20
913;DHT22;443;51.448;7.028;2023-04-15T13:46:22;14.80;71.30
913;DHT22;443;51.448;7.028;2023-04-15T13:48:50;14.80;70.90
913;DHT22;443;51.448;7.028;2023-04-15T13:51:17;14.70;68.00
913;DHT22;443;51.448;7.028;2023-04-15T13:53:45;14.70;67.70
913;DHT22;443;51.448;7.028;2023-04-15T13:56:12;14.70;68.90
913;DHT22;443;51.448;7.028;2023-04-15T13:58:39;14.70;69.20
913;DHT22;443;51.448;7.028;2023-04-15T14:01:06;14.70;69.40
913;DHT22;443;51.448;7.028;2023-04-15T14:03:33;14.60;68.30
913;DHT22;443;51.448;7.028;2023-04-15T14:06:01;14.60;69.90
913;DHT22;443;51.448;7.028;2023-04-15T14:08:28;14.60;69.20
913;DHT22;443;51.448;7.028;2023-04-15T14:10:56;14.70;70.40
913;DHT22;443;51.448;7.028;2023-04-15T14:13:23;14.70;70.00
913;DHT22;443;51.448;7.028;2023-04-15T14:15:50;14.60;69.30
913;DHT22;443;51.448;7.028;2023-04-15T14:18:17;14.60;70.50
913;DHT22;443;51.448;7.028;2023-04-15T14:20:44;14.60;69.30
913;DHT22;443;51.448;7.028;2023-04-15T14:23:10;14.70;70.50
913;DHT22;443;51.448;7.028;2023-04-15T14:25:37;14.60;70.40
913;DHT22;443;51.448;7.028;2023-04-15T14:28:06;14.50;69.80
913;DHT22;443;51.448;7.028;2023-04-15T14:30:32;14.50;70.30
913;DHT22;443;51.448;7.028;2023-04-15T14:32:59;14.40;70.30
913;DHT22;443;51.448;7.028;2023-04-15T14:35:27;14.50;70.60
913;DHT22;443;51.448;7.028;2023-04-15T14:37:54;14.50;70.40
913;DHT22;443;51.448;7.028;2023-04-15T14:40:21;14.50;71.00
913;DHT22;443;51.448;7.028;2023-04-15T14:42:48;14.50;70.60
913;DHT22;443;51.448;7.028;2023-04-15T14:45:16;14.50;71.60
913;DHT22;443;51.448;7.028;2023-04-15T14:47:43;14.50;70.80
913;DHT22;443;51.448;7.028;2023-04-15T14:50:11;14.40;70.80
913;DHT22;443;51.448;7.028;2023-04-15T14:52:37;14.50;71.10
913;DHT22;443;51.448;7.028;2023-04-15T14:55:05;14.40;70.70
913;DHT22;443;51.448;7.028;2023-04-15T14:57:32;14.50;71.00
913;DHT22;443;51.448;7.028;2023-04-15T14:59:58;14.40;70.50
913;DHT22;443;51.448;7.028;2023-04-15T15:02:27;14.40;71.60
913;DHT22;443;51.448;7.028;2023-04-15T15:04:54;14.40;71.00
913;DHT22;443;51.448;7.028;2023-04-15T15:07:21;14.40;71.30
913;DHT22;443;51.448;7.028;2023-04-15T15:09:48;14.40;71.40
913;DHT22;443;51.448;7.028;2023-04-15T15:12:15;14.40;71.00
913;DHT22;443;51.448;7.028;2023-04-15T15:14:42;14.30;71.30
913;DHT22;443;51.448;7.028;2023-04-15T15:17:09;14.30;71.80
913;DHT22;443;51.448;7.028;2023-04-15T15:19:37;14.30;72.00
913;DHT22;443;51.448;7.028;2023-04-15T15:22:04;14.30;72.10
913;DHT22;443;51.448;7.028;2023-04-15T15:24:31;14.30;72.40
913;DHT22;443;51.448;7.028;2023-04-15T15:26:58;14.30;72.30
913;DHT22;443;51.448;7.028;2023-04-15T15:29:25;14.30;72.40
913;DHT22;443;51.448;7.028;2023-04-15T15:31:51;14.30;72.20
913;DHT22;443;51.448;7.028;2023-04-15T15:34:18;14.20;72.00
913;DHT22;443;51.448;7.028;2023-04-15T15:36:47;14.20;72.00
913;DHT22;443;51.448;7.028;2023-04-15T15:39:14;14.20;72.30
913;DHT22;443;51.448;7.028;2023-04-15T15:41:41;14.20;72.20
913;DHT22;443;51.448;7.028;2023-04-15T15:44:08;14.20;72.50
913;DHT22;443;51.448;7.028;2023-04-15T15:46:34;14.20;72.10
913;DHT22;443;51.448;7.028;2023-04-15T15:49:01;14.20;72.10
913;DHT22;443;51.448;7.028;2023-04-15T15:51:28;14.10;71.80
913;DHT22;443;51.448;7.028;2023-04-15T15:53:57;14.20;72.00
913;DHT22;443;51.448;7.028;2023-04-15T15:56:24;14.20;72.10
913;DHT22;443;51.448;7.028;2023-04-15T15:58:51;14.20;72.50
913;DHT22;443;51.448;7.028;2023-04-15T16:01:18;14.20;72.60
913;DHT22;443;51.448;7.028;2023-04-15T16:03:45;14.20;72.50
913;DHT22;443;51.448;7.028;2023-04-15T16:06:11;14.10;72.00
913;DHT22;443;51.448;7.028;2023-04-15T16:08:38;14.10;72.10
913;DHT22;443;51.448;7.028;2023-04-15T16:11:06;14.20;73.00
913;DHT22;443;51.448;7.028;2023-04-15T16:13:33;14.10;72.00
913;DHT22;443;51.448;7.028;2023-04-15T16:16:00;14.10;72.10
913;DHT22;443;51.448;7.028;2023-04-15T16:18:27;14.10;72.10
913;DHT22;443;51.448;7.028;2023-04-15T16:20:53;14.10;72.00
913;DHT22;443;51.448;7.028;2023-04-15T16:23:20;14.10;72.30
913;DHT22;443;51.448;7.028;2023-04-15T16:25:49;14.10;72.40
913;DHT22;443;51.448;7.028;2023-04-15T16:28:17;14.10;72.70
913;DHT22;443;51.448;7.028;2023-04-15T16:30:44;14.10;72.70
913;DHT22;443;51.448;7.028;2023-04-15T16:33:11;14.10;72.40
913;DHT22;443;51.448;7.028;2023-04-15T16:35:38;14.10;72.10
913;DHT22;443;51.448;7.028;2023-04-15T16:38:04;14.10;72.10